sensor_id;sensor_type;location;lat;lon;timestamp;P1;durP1;ratioP1;P2;durP2;ratioP2
801;SDS011;383;48.766;9.270;2023-03-01T00:02:18;32.28;;;13.80;;
801;SDS011;383;48.766;9.270;2023-03-01T00:04:45;30.25;;;14.27;;
801;SDS011;383;48.766;9.270;2023-03-01T00:07:12;29.85;;;14.32;;
801;SDS011;383;48.766;9.270;2023-03-01T00:09:40;35.30;;;14.38;;
801;SDS011;383;48.766;9.270;2023-03-01T00:12:07;28.77;;;12.95;;
801;SDS011;383;48.766;9.270;2023-03-01T00:14:34;22.90;;;13.32;;
801;SDS011;383;48.766;9.270;2023-03-01T00:17:01;32.33;;;14.40;;
801;SDS011;383;48.766;9.270;2023-03-01T00:19:28;35.85;;;13.15;;
801;SDS011;383;48.766;9.270;2023-03-01T00:21:55;29.60;;;12.95;;
801;SDS011;383;48.766;9.270;2023-03-01T00:24:22;23.35;;;11.50;;
801;SDS011;383;48.766;9.270;2023-03-01T00:26:50;39.08;;;13.90;;
801;SDS011;383;48.766;9.270;2023-03-01T00:29:20;43.60;;;13.95;;
801;SDS011;383;48.766;9.270;2023-03-01T00:31:47;27.38;;;13.32;;
801;SDS011;383;48.766;9.270;2023-03-01T00:34:13;28.15;;;13.52;;
801;SDS011;383;48.766;9.270;2023-03-01T00:36:40;28.98;;;12.52;;
801;SDS011;383;48.766;9.270;2023-03-01T00:39:07;30.80;;;13.52;;
801;SDS011;383;48.766;9.270;2023-03-01T00:41:36;35.63;;;13.10;;
801;SDS011;383;48.766;9.270;2023-03-01T00:44:06;28.92;;;12.52;;
801;SDS011;383;48.766;9.270;2023-03-01T00:46:33;36.50;;;13.45;;
801;SDS011;383;48.766;9.270;2023-03-01T00:48:59;28.00;;;13.27;;
801;SDS011;383;48.766;9.270;2023-03-01T00:51:27;35.70;;;14.00;;
801;SDS011;383;48.766;9.270;2023-03-01T00:53:56;31.48;;;13.30;;
801;SDS011;383;48.766;9.270;2023-03-01T00:56:24;33.10;;;14.25;;
801;SDS011;383;48.766;9.270;2023-03-01T00:58:51;27.52;;;12.98;;
801;SDS011;383;48.766;9.270;2023-03-01T01:01:20;29.30;;;12.90;;
801;SDS011;383;48.766;9.270;2023-03-01T01:03:49;27.95;;;12.75;;
801;SDS011;383;48.766;9.270;2023-03-01T01:06:19;32.55;;;13.10;;
801;SDS011;383;48.766;9.270;2023-03-01T01:08:47;32.03;;;12.85;;
801;SDS011;383;48.766;9.270;2023-03-01T01:11:15;27.52;;;13.77;;
801;SDS011;383;48.766;9.270;2023-03-01T01:13:43;32.65;;;11.65;;
801;SDS011;383;48.766;9.270;2023-03-01T01:16:11;25.10;;;11.30;;
801;SDS011;383;48.766;9.270;2023-03-01T01:18:39;28.90;;;13.00;;
801;SDS011;383;48.766;9.270;2023-03-01T01:21:07;25.60;;;11.77;;
801;SDS011;383;48.766;9.270;2023-03-01T01:23:35;27.48;;;12.30;;
801;SDS011;383;48.766;9.270;2023-03-01T01:26:03;35.33;;;12.85;;
801;SDS011;383;48.766;9.270;2023-03-01T01:28:31;28.33;;;12.35;;
801;SDS011;383;48.766;9.270;2023-03-01T01:30:57;28.27;;;12.13;;
801;SDS011;383;48.766;9.270;2023-03-01T01:33:24;30.63;;;13.57;;
801;SDS011;383;48.766;9.270;2023-03-01T01:35:53;31.52;;;12.50;;
801;SDS011;383;48.766;9.270;2023-03-01T01:38:20;24.42;;;12.50;;
801;SDS011;383;48.766;9.270;2023-03-01T01:40:48;31.58;;;13.27;;
801;SDS011;383;48.766;9.270;2023-03-01T01:43:20;30.27;;;13.55;;
801;SDS011;383;48.766;9.270;2023-03-01T01:45:49;29.05;;;12.10;;
801;SDS011;383;48.766;9.270;2023-03-01T01:48:17;27.63;;;13.10;;
801;SDS011;383;48.766;9.270;2023-03-01T01:50:47;34.03;;;14.07;;
801;SDS011;383;48.766;9.270;2023-03-01T01:53:19;28.33;;;12.18;;
801;SDS011;383;48.766;9.270;2023-03-01T01:55:47;27.88;;;13.32;;
801;SDS011;383;48.766;9.270;2023-03-01T01:58:18;28.52;;;12.88;;
801;SDS011;383;48.766;9.270;2023-03-01T02:00:46;29.50;;;13.80;;
801;SDS011;383;48.766;9.270;2023-03-01T02:03:14;33.65;;;13.80;;
801;SDS011;383;48.766;9.270;2023-03-01T02:05:46;32.22;;;13.98;;
801;SDS011;383;48.766;9.270;2023-03-01T02:08:17;34.25;;;14.65;;
801;SDS011;383;48.766;9.270;2023-03-01T02:10:47;35.70;;;15.10;;
801;SDS011;383;48.766;9.270;2023-03-01T02:13:15;34.13;;;14.85;;
801;SDS011;383;48.766;9.270;2023-03-01T02:15:42;27.70;;;13.15;;
801;SDS011;383;48.766;9.270;2023-03-01T02:18:10;35.28;;;15.63;;
801;SDS011;383;48.766;9.270;2023-03-01T02:20:40;43.30;;;17.70;;
801;SDS011;383;48.766;9.270;2023-03-01T02:23:14;33.10;;;14.30;;
801;SDS011;383;48.766;9.270;2023-03-01T02:25:44;36.92;;;15.45;;
801;SDS011;383;48.766;9.270;2023-03-01T02:31:09;28.55;;;14.10;;
801;SDS011;383;48.766;9.270;2023-03-01T02:33:54;35.97;;;13.95;;
801;SDS011;383;48.766;9.270;2023-03-01T02:36:23;30.95;;;14.18;;
801;SDS011;383;48.766;9.270;2023-03-01T02:38:53;33.75;;;14.18;;
801;SDS011;383;48.766;9.270;2023-03-01T02:41:23;34.30;;;15.52;;
801;SDS011;383;48.766;9.270;2023-03-01T02:43:53;33.88;;;15.00;;
801;SDS011;383;48.766;9.270;2023-03-01T02:46:20;30.08;;;14.18;;
801;SDS011;383;48.766;9.270;2023-03-01T02:48:50;30.02;;;14.60;;
801;SDS011;383;48.766;9.270;2023-03-01T02:51:21;29.92;;;14.88;;
801;SDS011;383;48.766;9.270;2023-03-01T02:54:07;32.13;;;14.93;;
801;SDS011;383;48.766;9.270;2023-03-01T02:56:38;30.17;;;13.32;;
801;SDS011;383;48.766;9.270;2023-03-01T02:59:06;30.63;;;14.27;;
801;SDS011;383;48.766;9.270;2023-03-01T03:01:34;32.70;;;14.73;;
801;SDS011;383;48.766;9.270;2023-03-01T03:04:03;31.58;;;14.02;;
801;SDS011;383;48.766;9.270;2023-03-01T03:06:31;32.05;;;14.55;;
801;SDS011;383;48.766;9.270;2023-03-01T03:08:57;33.50;;;15.63;;
801;SDS011;383;48.766;9.270;2023-03-01T03:11:25;28.70;;;15.20;;
801;SDS011;383;48.766;9.270;2023-03-01T03:13:52;34.17;;;15.00;;
801;SDS011;383;48.766;9.270;2023-03-01T03:16:20;30.35;;;14.43;;
801;SDS011;383;48.766;9.270;2023-03-01T03:18:47;33.90;;;15.52;;
801;SDS011;383;48.766;9.270;2023-03-01T03:21:14;30.95;;;14.50;;
801;SDS011;383;48.766;9.270;2023-03-01T03:23:42;34.72;;;15.02;;
801;SDS011;383;48.766;9.270;2023-03-01T03:26:08;33.38;;;15.32;;
801;SDS011;383;48.766;9.270;2023-03-01T03:28:40;31.42;;;14.32;;
801;SDS011;383;48.766;9.270;2023-03-01T03:31:07;35.70;;;16.20;;
801;SDS011;383;48.766;9.270;2023-03-01T03:33:35;31.52;;;14.02;;
801;SDS011;383;48.766;9.270;2023-03-01T03:36:02;30.08;;;15.13;;
801;SDS011;383;48.766;9.270;2023-03-01T03:38:29;35.33;;;15.30;;
801;SDS011;383;48.766;9.270;2023-03-01T03:40:59;33.92;;;14.43;;
801;SDS011;383;48.766;9.270;2023-03-01T03:43:28;34.83;;;13.88;;
801;SDS011;383;48.766;9.270;2023-03-01T03:45:56;33.35;;;14.73;;
801;SDS011;383;48.766;9.270;2023-03-01T03:48:23;33.30;;;14.75;;
801;SDS011;383;48.766;9.270;2023-03-01T03:50:53;29.98;;;13.63;;
801;SDS011;383;48.766;9.270;2023-03-01T03:53:20;34.55;;;14.13;;
801;SDS011;383;48.766;9.270;2023-03-01T03:55:48;40.55;;;15.27;;
801;SDS011;383;48.766;9.270;2023-03-01T03:58:17;39.08;;;15.20;;
801;SDS011;383;48.766;9.270;2023-03-01T04:00:46;38.58;;;15.52;;
801;SDS011;383;48.766;9.270;2023-03-01T04:03:14;37.90;;;16.80;;
801;SDS011;383;48.766;9.270;2023-03-01T04:05:43;38.40;;;15.63;;
801;SDS011;383;48.766;9.270;2023-03-01T04:08:12;37.67;;;15.07;;
801;SDS011;383;48.766;9.270;2023-03-01T04:10:41;33.42;;;14.30;;
801;SDS011;383;48.766;9.270;2023-03-01T04:13:10;31.90;;;16.80;;
801;SDS011;383;48.766;9.270;2023-03-01T04:15:38;33.53;;;14.88;;
801;SDS011;383;48.766;9.270;2023-03-01T04:18:05;33.80;;;15.63;;
801;SDS011;383;48.766;9.270;2023-03-01T04:20:33;32.28;;;14.05;;
801;SDS011;383;48.766;9.270;2023-03-01T04:23:01;39.55;;;17.27;;
801;SDS011;383;48.766;9.270;2023-03-01T04:25:36;28.02;;;14.32;;
801;SDS011;383;48.766;9.270;2023-03-01T04:28:04;30.58;;;13.90;;
801;SDS011;383;48.766;9.270;2023-03-01T04:30:31;32.95;;;15.18;;
801;SDS011;383;48.766;9.270;2023-03-01T04:33:00;34.00;;;14.80;;
801;SDS011;383;48.766;9.270;2023-03-01T04:35:28;33.45;;;14.80;;
801;SDS011;383;48.766;9.270;2023-03-01T04:37:55;28.20;;;13.82;;
801;SDS011;383;48.766;9.270;2023-03-01T04:40:22;27.77;;;14.20;;
801;SDS011;383;48.766;9.270;2023-03-01T04:42:50;33.75;;;14.82;;
801;SDS011;383;48.766;9.270;2023-03-01T04:45:17;41.70;;;16.63;;
801;SDS011;383;48.766;9.270;2023-03-01T04:47:44;31.35;;;14.40;;
801;SDS011;383;48.766;9.270;2023-03-01T04:50:12;34.15;;;14.18;;
801;SDS011;383;48.766;9.270;2023-03-01T04:52:40;36.45;;;14.23;;
801;SDS011;383;48.766;9.270;2023-03-01T04:55:07;39.50;;;16.98;;
801;SDS011;383;48.766;9.270;2023-03-01T04:57:35;40.20;;;16.15;;
801;SDS011;383;48.766;9.270;2023-03-01T05:00:03;30.27;;;15.20;;
801;SDS011;383;48.766;9.270;2023-03-01T05:02:44;35.25;;;15.95;;
801;SDS011;383;48.766;9.270;2023-03-01T05:05:13;33.25;;;15.85;;
801;SDS011;383;48.766;9.270;2023-03-01T05:07:40;36.90;;;16.90;;
801;SDS011;383;48.766;9.270;2023-03-01T05:10:07;32.00;;;16.15;;
801;SDS011;383;48.766;9.270;2023-03-01T05:12:34;27.70;;;14.55;;
801;SDS011;383;48.766;9.270;2023-03-01T05:15:04;38.53;;;15.90;;
801;SDS011;383;48.766;9.270;2023-03-01T05:17:32;39.20;;;16.85;;
801;SDS011;383;48.766;9.270;2023-03-01T05:19:59;37.95;;;16.17;;
801;SDS011;383;48.766;9.270;2023-03-01T05:22:26;30.88;;;15.77;;
801;SDS011;383;48.766;9.270;2023-03-01T05:24:52;37.80;;;15.93;;
801;SDS011;383;48.766;9.270;2023-03-01T05:27:20;29.27;;;14.52;;
801;SDS011;383;48.766;9.270;2023-03-01T05:29:47;33.35;;;14.32;;
801;SDS011;383;48.766;9.270;2023-03-01T05:32:15;36.65;;;15.02;;
801;SDS011;383;48.766;9.270;2023-03-01T05:34:42;25.98;;;13.15;;
801;SDS011;383;48.766;9.270;2023-03-01T05:37:11;39.00;;;15.80;;
801;SDS011;383;48.766;9.270;2023-03-01T05:39:38;35.53;;;15.90;;
801;SDS011;383;48.766;9.270;2023-03-01T05:42:09;35.85;;;16.65;;
801;SDS011;383;48.766;9.270;2023-03-01T05:44:38;41.95;;;15.98;;
801;SDS011;383;48.766;9.270;2023-03-01T05:47:05;35.15;;;14.80;;
801;SDS011;383;48.766;9.270;2023-03-01T05:49:33;37.95;;;15.93;;
801;SDS011;383;48.766;9.270;2023-03-01T05:52:00;33.78;;;15.23;;
801;SDS011;383;48.766;9.270;2023-03-01T05:54:27;38.17;;;14.20;;
801;SDS011;383;48.766;9.270;2023-03-01T05:56:53;38.92;;;15.82;;
801;SDS011;383;48.766;9.270;2023-03-01T05:59:21;34.08;;;16.20;;
801;SDS011;383;48.766;9.270;2023-03-01T06:01:47;31.63;;;15.60;;
801;SDS011;383;48.766;9.270;2023-03-01T06:04:15;29.95;;;16.40;;
801;SDS011;383;48.766;9.270;2023-03-01T06:06:43;34.65;;;16.25;;
801;SDS011;383;48.766;9.270;2023-03-01T06:09:10;34.38;;;16.27;;
801;SDS011;383;48.766;9.270;2023-03-01T06:11:37;30.35;;;15.70;;
801;SDS011;383;48.766;9.270;2023-03-01T06:14:04;35.45;;;14.95;;
801;SDS011;383;48.766;9.270;2023-03-01T06:16:35;40.47;;;16.42;;
801;SDS011;383;48.766;9.270;2023-03-01T06:19:02;26.00;;;12.75;;
801;SDS011;383;48.766;9.270;2023-03-01T06:21:28;33.85;;;15.85;;
801;SDS011;383;48.766;9.270;2023-03-01T06:23:56;35.92;;;15.90;;
801;SDS011;383;48.766;9.270;2023-03-01T06:26:23;32.53;;;15.70;;
801;SDS011;383;48.766;9.270;2023-03-01T06:28:50;35.10;;;14.85;;
801;SDS011;383;48.766;9.270;2023-03-01T06:31:16;43.03;;;18.77;;
801;SDS011;383;48.766;9.270;2023-03-01T06:33:43;35.08;;;16.92;;
801;SDS011;383;48.766;9.270;2023-03-01T06:36:10;34.97;;;17.30;;
801;SDS011;383;48.766;9.270;2023-03-01T06:38:37;37.95;;;16.88;;
801;SDS011;383;48.766;9.270;2023-03-01T06:41:07;39.67;;;16.48;;
801;SDS011;383;48.766;9.270;2023-03-01T06:43:33;47.25;;;16.98;;
801;SDS011;383;48.766;9.270;2023-03-01T06:46:03;38.03;;;17.08;;
801;SDS011;383;48.766;9.270;2023-03-01T06:48:30;38.05;;;15.70;;
801;SDS011;383;48.766;9.270;2023-03-01T06:50:57;32.55;;;17.15;;
801;SDS011;383;48.766;9.270;2023-03-01T06:53:24;34.85;;;16.08;;
801;SDS011;383;48.766;9.270;2023-03-01T06:55:53;40.17;;;16.25;;
801;SDS011;383;48.766;9.270;2023-03-01T06:58:22;35.95;;;16.00;;
801;SDS011;383;48.766;9.270;2023-03-01T07:00:49;40.53;;;17.17;;
801;SDS011;383;48.766;9.270;2023-03-01T07:03:15;37.60;;;17.27;;
801;SDS011;383;48.766;9.270;2023-03-01T07:05:42;34.95;;;17.25;;
801;SDS011;383;48.766;9.270;2023-03-01T07:08:09;37.42;;;16.23;;
801;SDS011;383;48.766;9.270;2023-03-01T07:10:36;37.72;;;17.60;;
801;SDS011;383;48.766;9.270;2023-03-01T07:13:02;39.45;;;18.27;;
801;SDS011;383;48.766;9.270;2023-03-01T07:15:33;40.00;;;16.70;;
801;SDS011;383;48.766;9.270;2023-03-01T07:17:59;39.85;;;16.70;;
801;SDS011;383;48.766;9.270;2023-03-01T07:20:26;37.90;;;16.75;;
801;SDS011;383;48.766;9.270;2023-03-01T07:22:53;36.13;;;16.33;;
801;SDS011;383;48.766;9.270;2023-03-01T07:25:21;38.50;;;16.90;;
801;SDS011;383;48.766;9.270;2023-03-01T07:27:49;39.15;;;17.70;;
801;SDS011;383;48.766;9.270;2023-03-01T07:30:17;41.63;;;18.85;;
801;SDS011;383;48.766;9.270;2023-03-01T07:32:45;40.20;;;17.45;;
801;SDS011;383;48.766;9.270;2023-03-01T07:35:12;39.63;;;17.02;;
801;SDS011;383;48.766;9.270;2023-03-01T07:37:39;36.63;;;17.00;;
801;SDS011;383;48.766;9.270;2023-03-01T07:40:07;37.45;;;16.35;;
801;SDS011;383;48.766;9.270;2023-03-01T07:42:34;38.38;;;15.80;;
801;SDS011;383;48.766;9.270;2023-03-01T07:45:01;41.50;;;17.30;;
801;SDS011;383;48.766;9.270;2023-03-01T07:47:28;33.47;;;15.77;;
801;SDS011;383;48.766;9.270;2023-03-01T07:49:56;40.63;;;16.38;;
801;SDS011;383;48.766;9.270;2023-03-01T07:52:23;33.78;;;16.38;;
801;SDS011;383;48.766;9.270;2023-03-01T07:54:50;35.33;;;17.20;;
801;SDS011;383;48.766;9.270;2023-03-01T07:57:16;41.25;;;16.05;;
801;SDS011;383;48.766;9.270;2023-03-01T07:59:43;40.28;;;16.48;;
801;SDS011;383;48.766;9.270;2023-03-01T08:02:10;33.03;;;16.02;;
801;SDS011;383;48.766;9.270;2023-03-01T08:04:37;39.42;;;18.20;;
801;SDS011;383;48.766;9.270;2023-03-01T08:07:05;46.15;;;17.98;;
801;SDS011;383;48.766;9.270;2023-03-01T08:09:34;36.53;;;16.27;;
801;SDS011;383;48.766;9.270;2023-03-01T08:12:01;33.38;;;15.23;;
801;SDS011;383;48.766;9.270;2023-03-01T08:14:29;38.45;;;17.55;;
801;SDS011;383;48.766;9.270;2023-03-01T08:16:56;35.28;;;15.80;;
801;SDS011;383;48.766;9.270;2023-03-01T08:19:22;35.88;;;16.27;;
801;SDS011;383;48.766;9.270;2023-03-01T08:21:49;39.83;;;17.40;;
801;SDS011;383;48.766;9.270;2023-03-01T08:24:17;37.35;;;17.27;;
801;SDS011;383;48.766;9.270;2023-03-01T08:26:44;32.38;;;16.35;;
801;SDS011;383;48.766;9.270;2023-03-01T08:29:10;37.47;;;19.13;;
801;SDS011;383;48.766;9.270;2023-03-01T08:31:38;35.38;;;16.73;;
801;SDS011;383;48.766;9.270;2023-03-01T08:34:07;43.08;;;17.83;;
801;SDS011;383;48.766;9.270;2023-03-01T08:36:35;35.75;;;16.50;;
801;SDS011;383;48.766;9.270;2023-03-01T08:39:05;36.35;;;15.77;;
801;SDS011;383;48.766;9.270;2023-03-01T08:41:33;38.95;;;17.00;;
801;SDS011;383;48.766;9.270;2023-03-01T08:44:00;36.45;;;17.35;;
801;SDS011;383;48.766;9.270;2023-03-01T08:46:27;34.72;;;16.70;;
801;SDS011;383;48.766;9.270;2023-03-01T08:48:55;35.72;;;16.80;;
801;SDS011;383;48.766;9.270;2023-03-01T08:51:22;39.58;;;17.80;;
801;SDS011;383;48.766;9.270;2023-03-01T08:53:49;34.05;;;16.67;;
801;SDS011;383;48.766;9.270;2023-03-01T08:56:16;42.55;;;17.70;;
801;SDS011;383;48.766;9.270;2023-03-01T08:58:46;36.42;;;16.58;;
801;SDS011;383;48.766;9.270;2023-03-01T09:01:14;36.00;;;15.70;;
801;SDS011;383;48.766;9.270;2023-03-01T09:03:42;38.60;;;17.17;;
801;SDS011;383;48.766;9.270;2023-03-01T09:06:10;34.95;;;17.13;;
801;SDS011;383;48.766;9.270;2023-03-01T09:08:37;40.97;;;16.70;;
801;SDS011;383;48.766;9.270;2023-03-01T09:11:06;31.73;;;16.58;;
801;SDS011;383;48.766;9.270;2023-03-01T09:13:35;36.90;;;16.15;;
801;SDS011;383;48.766;9.270;2023-03-01T09:16:05;36.83;;;16.40;;
801;SDS011;383;48.766;9.270;2023-03-01T09:18:33;42.83;;;17.10;;
801;SDS011;383;48.766;9.270;2023-03-01T09:21:02;35.22;;;16.02;;
801;SDS011;383;48.766;9.270;2023-03-01T09:23:32;33.88;;;17.00;;
801;SDS011;383;48.766;9.270;2023-03-01T09:25:59;39.65;;;18.70;;
801;SDS011;383;48.766;9.270;2023-03-01T09:28:26;36.80;;;16.55;;
801;SDS011;383;48.766;9.270;2023-03-01T09:30:53;36.03;;;15.02;;
801;SDS011;383;48.766;9.270;2023-03-01T09:33:21;36.90;;;16.35;;
801;SDS011;383;48.766;9.270;2023-03-01T09:35:47;41.70;;;18.15;;
801;SDS011;383;48.766;9.270;2023-03-01T09:38:14;36.13;;;15.93;;
801;SDS011;383;48.766;9.270;2023-03-01T09:40:43;42.83;;;17.00;;
801;SDS011;383;48.766;9.270;2023-03-01T09:43:14;34.72;;;15.88;;
801;SDS011;383;48.766;9.270;2023-03-01T09:45:43;35.42;;;16.50;;
801;SDS011;383;48.766;9.270;2023-03-01T09:48:13;35.63;;;18.10;;
801;SDS011;383;48.766;9.270;2023-03-01T09:50:44;28.58;;;15.88;;
801;SDS011;383;48.766;9.270;2023-03-01T09:53:13;34.90;;;17.15;;
801;SDS011;383;48.766;9.270;2023-03-01T09:55:43;36.78;;;17.20;;
801;SDS011;383;48.766;9.270;2023-03-01T09:58:20;37.55;;;17.23;;
801;SDS011;383;48.766;9.270;2023-03-01T10:00:52;29.73;;;15.88;;
801;SDS011;383;48.766;9.270;2023-03-01T10:03:21;37.25;;;16.88;;
801;SDS011;383;48.766;9.270;2023-03-01T10:05:54;37.00;;;17.33;;
801;SDS011;383;48.766;9.270;2023-03-01T10:08:36;35.67;;;16.90;;
801;SDS011;383;48.766;9.270;2023-03-01T10:11:15;32.28;;;15.63;;
801;SDS011;383;48.766;9.270;2023-03-01T10:13:45;34.75;;;16.90;;
801;SDS011;383;48.766;9.270;2023-03-01T10:16:14;32.50;;;16.13;;
801;SDS011;383;48.766;9.270;2023-03-01T10:18:46;41.55;;;18.40;;
801;SDS011;383;48.766;9.270;2023-03-01T10:21:20;41.78;;;18.10;;
801;SDS011;383;48.766;9.270;2023-03-01T10:23:49;44.08;;;16.40;;
801;SDS011;383;48.766;9.270;2023-03-01T10:26:22;30.73;;;15.50;;
801;SDS011;383;48.766;9.270;2023-03-01T10:29:01;34.90;;;18.45;;
801;SDS011;383;48.766;9.270;2023-03-01T10:31:33;34.10;;;16.42;;
801;SDS011;383;48.766;9.270;2023-03-01T10:34:02;33.03;;;16.67;;
801;SDS011;383;48.766;9.270;2023-03-01T10:36:34;31.80;;;15.38;;
801;SDS011;383;48.766;9.270;2023-03-01T10:39:05;33.15;;;16.38;;
801;SDS011;383;48.766;9.270;2023-03-01T10:41:40;31.10;;;15.95;;
801;SDS011;383;48.766;9.270;2023-03-01T10:44:36;32.63;;;16.38;;
801;SDS011;383;48.766;9.270;2023-03-01T10:47:13;37.08;;;15.50;;
801;SDS011;383;48.766;9.270;2023-03-01T10:49:52;36.10;;;17.10;;
801;SDS011;383;48.766;9.270;2023-03-01T10:52:26;35.33;;;16.15;;
801;SDS011;383;48.766;9.270;2023-03-01T10:54:56;40.45;;;16.23;;
801;SDS011;383;48.766;9.270;2023-03-01T10:57:27;34.45;;;16.70;;
801;SDS011;383;48.766;9.270;2023-03-01T11:03:01;29.95;;;15.60;;
801;SDS011;383;48.766;9.270;2023-03-01T11:05:29;33.75;;;14.05;;
801;SDS011;383;48.766;9.270;2023-03-01T11:08:00;31.10;;;15.30;;
801;SDS011;383;48.766;9.270;2023-03-01T11:10:29;33.58;;;16.67;;
801;SDS011;383;48.766;9.270;2023-03-01T11:13:05;31.52;;;16.58;;
801;SDS011;383;48.766;9.270;2023-03-01T11:15:33;31.83;;;15.25;;
801;SDS011;383;48.766;9.270;2023-03-01T11:18:00;32.38;;;15.95;;
801;SDS011;383;48.766;9.270;2023-03-01T11:20:29;32.97;;;18.30;;
801;SDS011;383;48.766;9.270;2023-03-01T11:22:59;37.10;;;16.88;;
801;SDS011;383;48.766;9.270;2023-03-01T11:25:30;36.00;;;15.85;;
801;SDS011;383;48.766;9.270;2023-03-01T11:28:01;31.20;;;14.80;;
801;SDS011;383;48.766;9.270;2023-03-01T11:30:31;29.02;;;15.40;;
801;SDS011;383;48.766;9.270;2023-03-01T11:33:04;25.15;;;13.80;;
801;SDS011;383;48.766;9.270;2023-03-01T11:35:41;30.83;;;15.85;;
801;SDS011;383;48.766;9.270;2023-03-01T11:38:16;33.03;;;16.58;;
801;SDS011;383;48.766;9.270;2023-03-01T11:40:47;30.27;;;15.43;;
801;SDS011;383;48.766;9.270;2023-03-01T11:46:25;30.23;;;15.85;;
801;SDS011;383;48.766;9.270;2023-03-01T11:52:03;33.17;;;15.70;;
801;SDS011;383;48.766;9.270;2023-03-01T11:54:46;29.30;;;15.20;;
801;SDS011;383;48.766;9.270;2023-03-01T11:57:20;28.58;;;14.82;;
801;SDS011;383;48.766;9.270;2023-03-01T11:59:59;30.95;;;15.10;;
801;SDS011;383;48.766;9.270;2023-03-01T12:05:50;32.00;;;16.15;;
801;SDS011;383;48.766;9.270;2023-03-01T12:08:42;36.35;;;16.90;;
801;SDS011;383;48.766;9.270;2023-03-01T12:11:19;29.27;;;15.90;;
801;SDS011;383;48.766;9.270;2023-03-01T12:16:57;33.58;;;15.77;;
801;SDS011;383;48.766;9.270;2023-03-01T12:22:31;28.05;;;13.15;;
801;SDS011;383;48.766;9.270;2023-03-01T12:25:08;27.23;;;15.35;;
801;SDS011;383;48.766;9.270;2023-03-01T12:27:57;28.02;;;14.68;;
801;SDS011;383;48.766;9.270;2023-03-01T12:30:40;31.52;;;16.02;;
801;SDS011;383;48.766;9.270;2023-03-01T12:33:21;32.60;;;14.80;;
801;SDS011;383;48.766;9.270;2023-03-01T12:36:02;32.83;;;14.68;;
801;SDS011;383;48.766;9.270;2023-03-01T12:38:40;27.23;;;14.05;;
801;SDS011;383;48.766;9.270;2023-03-01T12:41:18;27.50;;;15.75;;
801;SDS011;383;48.766;9.270;2023-03-01T12:44:04;29.40;;;16.17;;
801;SDS011;383;48.766;9.270;2023-03-01T12:46:54;32.90;;;15.63;;
801;SDS011;383;48.766;9.270;2023-03-01T12:49:33;27.77;;;13.63;;
801;SDS011;383;48.766;9.270;2023-03-01T12:52:06;31.65;;;15.05;;
801;SDS011;383;48.766;9.270;2023-03-01T12:54:40;38.13;;;16.30;;
801;SDS011;383;48.766;9.270;2023-03-01T12:57:09;25.05;;;13.82;;
801;SDS011;383;48.766;9.270;2023-03-01T12:59:46;25.90;;;14.77;;
801;SDS011;383;48.766;9.270;2023-03-01T13:02:26;30.60;;;14.48;;
801;SDS011;383;48.766;9.270;2023-03-01T13:05:01;25.85;;;14.20;;
801;SDS011;383;48.766;9.270;2023-03-01T13:07:44;29.38;;;14.45;;
801;SDS011;383;48.766;9.270;2023-03-01T13:10:21;30.45;;;14.55;;
801;SDS011;383;48.766;9.270;2023-03-01T13:12:56;29.25;;;13.73;;
801;SDS011;383;48.766;9.270;2023-03-01T13:15:33;33.33;;;14.57;;
801;SDS011;383;48.766;9.270;2023-03-01T13:18:02;24.23;;;12.63;;
801;SDS011;383;48.766;9.270;2023-03-01T13:20:31;27.90;;;14.70;;
801;SDS011;383;48.766;9.270;2023-03-01T13:23:06;25.27;;;14.82;;
801;SDS011;383;48.766;9.270;2023-03-01T13:25:35;24.00;;;13.68;;
801;SDS011;383;48.766;9.270;2023-03-01T13:28:49;24.42;;;12.85;;
801;SDS011;383;48.766;9.270;2023-03-01T13:34:43;24.83;;;12.65;;
801;SDS011;383;48.766;9.270;2023-03-01T13:37:19;27.65;;;13.20;;
801;SDS011;383;48.766;9.270;2023-03-01T13:39:58;24.30;;;13.32;;
801;SDS011;383;48.766;9.270;2023-03-01T13:42:31;28.15;;;13.43;;
801;SDS011;383;48.766;9.270;2023-03-01T13:45:14;27.92;;;14.15;;
801;SDS011;383;48.766;9.270;2023-03-01T13:47:45;24.40;;;12.80;;
801;SDS011;383;48.766;9.270;2023-03-01T13:50:19;27.25;;;12.75;;
801;SDS011;383;48.766;9.270;2023-03-01T13:52:50;27.70;;;14.68;;
801;SDS011;383;48.766;9.270;2023-03-01T13:55:23;24.02;;;13.15;;
801;SDS011;383;48.766;9.270;2023-03-01T13:57:53;30.23;;;14.00;;
801;SDS011;383;48.766;9.270;2023-03-01T14:00:26;26.70;;;14.98;;
801;SDS011;383;48.766;9.270;2023-03-01T14:03:01;28.75;;;15.10;;
801;SDS011;383;48.766;9.270;2023-03-01T14:05:31;33.00;;;14.52;;
801;SDS011;383;48.766;9.270;2023-03-01T14:07:58;37.85;;;15.35;;
801;SDS011;383;48.766;9.270;2023-03-01T14:10:25;31.35;;;15.57;;
801;SDS011;383;48.766;9.270;2023-03-01T14:13:04;29.20;;;14.20;;
801;SDS011;383;48.766;9.270;2023-03-01T14:15:46;28.80;;;14.90;;
801;SDS011;383;48.766;9.270;2023-03-01T14:18:24;30.40;;;14.93;;
801;SDS011;383;48.766;9.270;2023-03-01T14:20:54;30.60;;;14.30;;
801;SDS011;383;48.766;9.270;2023-03-01T14:23:22;31.38;;;15.25;;
801;SDS011;383;48.766;9.270;2023-03-01T14:25:51;32.60;;;15.75;;
801;SDS011;383;48.766;9.270;2023-03-01T14:28:20;30.88;;;14.30;;
801;SDS011;383;48.766;9.270;2023-03-01T14:30:52;31.25;;;15.43;;
801;SDS011;383;48.766;9.270;2023-03-01T14:33:21;37.33;;;15.88;;
801;SDS011;383;48.766;9.270;2023-03-01T14:35:55;27.08;;;14.63;;
801;SDS011;383;48.766;9.270;2023-03-01T14:38:23;32.38;;;15.70;;
801;SDS011;383;48.766;9.270;2023-03-01T14:40:55;27.55;;;15.07;;
801;SDS011;383;48.766;9.270;2023-03-01T14:43:25;30.63;;;14.68;;
801;SDS011;383;48.766;9.270;2023-03-01T14:45:52;33.65;;;17.35;;
801;SDS011;383;48.766;9.270;2023-03-01T14:48:19;38.58;;;15.40;;
801;SDS011;383;48.766;9.270;2023-03-01T14:50:46;31.17;;;15.65;;
801;SDS011;383;48.766;9.270;2023-03-01T14:53:17;30.25;;;15.52;;
801;SDS011;383;48.766;9.270;2023-03-01T14:55:50;31.65;;;15.75;;
801;SDS011;383;48.766;9.270;2023-03-01T14:58:20;30.80;;;15.38;;
801;SDS011;383;48.766;9.270;2023-03-01T15:00:49;36.28;;;15.73;;
801;SDS011;383;48.766;9.270;2023-03-01T15:03:20;30.63;;;15.57;;
801;SDS011;383;48.766;9.270;2023-03-01T15:05:51;30.65;;;16.25;;
801;SDS011;383;48.766;9.270;2023-03-01T15:08:21;25.88;;;14.85;;
801;SDS011;383;48.766;9.270;2023-03-01T15:10:57;29.73;;;15.27;;
801;SDS011;383;48.766;9.270;2023-03-01T15:13:28;33.30;;;15.52;;
801;SDS011;383;48.766;9.270;2023-03-01T15:16:01;31.73;;;16.05;;
801;SDS011;383;48.766;9.270;2023-03-01T15:18:35;26.52;;;15.20;;
801;SDS011;383;48.766;9.270;2023-03-01T15:21:08;26.48;;;14.30;;
801;SDS011;383;48.766;9.270;2023-03-01T15:23:47;32.85;;;15.10;;
801;SDS011;383;48.766;9.270;2023-03-01T15:26:23;28.90;;;14.23;;
801;SDS011;383;48.766;9.270;2023-03-01T15:28:52;23.90;;;13.30;;
801;SDS011;383;48.766;9.270;2023-03-01T15:31:23;34.80;;;16.40;;
801;SDS011;383;48.766;9.270;2023-03-01T15:33:52;30.98;;;15.32;;
801;SDS011;383;48.766;9.270;2023-03-01T15:36:36;28.73;;;13.75;;
801;SDS011;383;48.766;9.270;2023-03-01T15:41:55;30.08;;;15.02;;
801;SDS011;383;48.766;9.270;2023-03-01T15:44:25;43.58;;;20.13;;
801;SDS011;383;48.766;9.270;2023-03-01T15:46:53;41.67;;;18.13;;
801;SDS011;383;48.766;9.270;2023-03-01T15:49:24;30.52;;;14.55;;
801;SDS011;383;48.766;9.270;2023-03-01T15:51:58;32.15;;;15.88;;
801;SDS011;383;48.766;9.270;2023-03-01T15:54:26;32.75;;;14.65;;
801;SDS011;383;48.766;9.270;2023-03-01T15:56:54;31.33;;;15.55;;
801;SDS011;383;48.766;9.270;2023-03-01T15:59:21;32.78;;;16.02;;
801;SDS011;383;48.766;9.270;2023-03-01T16:01:48;34.88;;;15.65;;